< Typhoon 198124 1981 Season Typhoon 198126 >
Typhoon 198125 (HAZEN)
General InformationTrack Information on Google MapsDetailed Wind InformationList of All Images || Disaster Info.ResourceGoogle EarthGE AnimationAtom FeedGeoJSON
Detalied Best Track (Time Zone = UTC)
Year Month Day Hour Lat. Long. Pressure (hPa) Wind (kt) Class Image Chart
1981 11 13 00 14.5 151.5 1008 0 2 Image Chart
1981 11 13 06 14.7 150.7 1008 0 2 Image Chart
1981 11 13 12 15.0 150.0 1008 0 2 Image Chart
1981 11 13 18 15.3 149.3 1006 0 2 Image Chart
1981 11 14 00 15.6 148.6 1004 0 2 Image Chart
1981 11 14 06 15.6 148.3 1000 0 2 Image Chart
1981 11 14 12 15.7 147.9 998 0 2 Image Chart
1981 11 14 18 15.6 147.4 992 45 3 Image Chart
1981 11 15 00 15.2 146.4 990 45 3 Image Chart
1981 11 15 06 14.8 145.2 980 55 4 Image Chart
1981 11 15 12 14.2 143.8 975 60 4 Image Chart
1981 11 15 18 13.7 142.3 960 65 5 Image Chart
1981 11 16 00 13.5 140.7 955 70 5 Image Chart
1981 11 16 06 13.4 139.1 955 70 5 Image Chart
1981 11 16 12 13.6 137.5 960 65 5 Image Chart
1981 11 16 18 14.0 136.0 970 60 4 Image Chart
1981 11 17 00 14.3 134.6 980 50 4 Image Chart
1981 11 17 06 14.5 133.2 985 55 4 Image Chart
1981 11 17 12 14.7 131.9 985 55 4 Image Chart
1981 11 17 18 14.9 130.7 985 55 4 Image Chart
1981 11 18 00 14.9 129.6 985 55 4 Image Chart
1981 11 18 06 14.7 128.6 985 50 4 Image Chart
1981 11 18 12 14.6 127.5 990 45 3 Image Chart
1981 11 18 18 14.1 126.9 980 50 4 Image Chart
1981 11 19 00 13.8 126.1 975 65 5 Image Chart
1981 11 19 06 13.6 125.1 975 70 5 Image Chart
1981 11 19 12 13.5 124.1 980 60 4 Image Chart
1981 11 19 18 13.4 122.5 985 55 4 Image Chart
1981 11 20 00 13.5 121.0 985 55 4 Image Chart
1981 11 20 06 13.5 119.6 985 55 4 Image Chart
1981 11 20 12 14.0 118.2 985 55 4 Image Chart
1981 11 20 18 14.6 117.1 990 45 3 Image Chart
1981 11 21 00 15.0 115.5 994 40 3 Image Chart
1981 11 21 06 15.6 114.0 1000 35 3 Image Chart
1981 11 21 12 16.2 112.5 1000 35 3 Image Chart
1981 11 21 18 16.8 110.9 1000 35 3 Image Chart
1981 11 22 00 18.0 110.0 1004 0 6 Image Chart
1981 11 22 06 19.0 109.5 1006 0 6 Image Chart
1981 11 22 12 19.5 109.0 1008 0 6 Image Chart
1981 11 22 18 20.0 109.0 1008 0 6 Image Chart
1981 11 23 00 21.0 109.0 1010 0 6 Image Chart
Japan Meteorological Agency Best Track Data | Correction Date : 1992-10-21
< Typhoon 198124 1981 Season Typhoon 198126 >

Help